Station: Cairns Racecourse  

  Atmospheric Gas Attenuation - ITU Rec 676-11   ----------------- dB/100km -----------------
Date Time Temp RH % AH g/m3 Dew Point Wind Direction Speed kph Gust kph Barometer mB Rainfall Since 9am 24GHz 47GHz 76GHz 122GHz 134GHz 241GHz
11/05 06:20 23.2 86 17.88 20.7 11 13 1017.3 0 38.7 38.9 73.9 195.5 213.4 740.8
11/05 06:10 23.3 86 17.98 20.8 11 13 1017.3 0 38.9 39.1 74.3 196.5 214.6 745.2
11/05 06:00 23.3 86 17.98 20.8 9 13 1017.3 0 38.9 39.1 74.3 196.5 214.6 745.2
11/05 05:50 23.1 87 17.98 20.8 7 9 1017 0 39.0 39.2 74.5 197.0 215.2 747.0
11/05 05:40 23 87 17.88 20.7 9 11 1016.9 0 38.8 39.0 74.1 195.9 213.9 742.6
11/05 05:30 23 87 17.88 20.7 11 17 1016.8 0 38.8 39.0 74.1 195.9 213.9 742.5
11/05 05:20 23 87 17.88 20.7 9 11 1016.6 0 38.8 39.0 74.1 195.9 213.8 742.4
11/05 05:10 23.1 87 17.98 20.8 7 9 1016.5 0 39.0 39.1 74.5 196.9 215.1 746.8
11/05 05:00 23.2 87 18.09 20.9 9 13 1016.6 0 39.2 39.3 74.9 198.0 216.5 751.8
11/05 04:50 23 88 18.09 20.9 11 13 1016.4 0 39.2 39.4 75.1 198.5 217.1 753.6
11/05 04:40 23.1 87 17.98 20.8 11 13 1016.4 0 39.0 39.1 74.5 196.9 215.1 746.7
11/05 04:30 22.9 87 17.78 20.6 9 15 1016.5 0 38.6 38.9 73.7 194.9 212.6 738.0
11/05 04:20 22.9 87 17.78 20.6 9 11 1016.5 0 38.6 38.9 73.7 194.9 212.6 738.0
11/05 04:10 22.9 86 17.57 20.4 7 9 1016.6 0 38.1 38.5 72.7 192.3 209.3 726.7
11/05 04:00 23.1 86 17.78 20.6 9 15 1016.7 0 38.5 38.8 73.5 194.4 212.0 736.1
11/05 03:50 23.3 85 17.77 20.6 13 15 1016.7 0 38.5 38.7 73.3 193.8 211.3 733.6
11/05 03:40 23.1 86 17.78 20.6 11 13 1016.7 0 38.5 38.8 73.5 194.4 212.0 736.1
11/05 03:30 23.3 85 17.77 20.6 11 19 1016.7 0 38.5 38.7 73.3 193.8 211.3 733.6
11/05 03:20 23.2 85 17.67 20.5 9 13 1016.7 0 38.3 38.5 72.9 192.8 210.1 729.3
11/05 03:10 23.3 84 17.56 20.4 11 13 1016.6 0 38.0 38.3 72.3 191.1 208.1 722.4
11/05 03:00 23.4 83 17.45 20.3 11 15 1016.8 0 37.8 38.0 71.7 189.5 206.1 715.7
11/05 02:50 23.3 84 17.56 20.4 13 17 1016.8 0 38.0 38.3 72.3 191.2 208.1 722.5
11/05 02:40 23.2 85 17.67 20.5 9 11 1016.7 0 38.3 38.5 72.9 192.8 210.1 729.3
11/05 02:30 23.3 85 17.77 20.6 11 19 1016.8 0 38.5 38.7 73.3 193.8 211.3 733.7
11/05 02:20 23.4 84 17.66 20.5 11 13 1016.8 0 38.2 38.4 72.7 192.1 209.4 726.8
11/05 02:10 23.4 84 17.66 20.5 13 20 1016.9 0 38.2 38.4 72.7 192.2 209.4 726.9
11/05 02:00 23.5 84 17.76 20.6 15 22 1017 0 38.4 38.6 73.1 193.2 210.6 731.3
11/05 01:50 23.6 83 17.65 20.5 15 19 1016.9 0 38.2 38.3 72.5 191.5 208.7 724.4
11/05 01:40 23.5 84 17.76 20.6 11 13 1017 0 38.4 38.6 73.1 193.2 210.6 731.3
11/05 01:30 23.3 85 17.77 20.6 11 19 1017.2 0 38.5 38.7 73.3 193.8 211.4 733.9
11/05 01:20 23.3 85 17.77 20.6 11 13 1017.2 0 38.5 38.7 73.3 193.8 211.4 733.9
11/05 01:10 23.4 85 17.87 20.7 11 13 1017.4 0 38.7 38.8 73.7 194.9 212.7 738.4
11/05 01:00 23.5 85 17.97 20.8 13 20 1017.6 0 38.9 39.0 74.1 195.9 213.9 742.8
11/05 00:50 23.5 84 17.76 20.6 11 15 1017.8 0 38.4 38.6 73.1 193.3 210.7 731.7
11/05 00:40 23.5 84 17.76 20.6 11 15 1017.9 0 38.4 38.6 73.1 193.3 210.8 731.8
11/05 00:30 23.6 85 18.08 20.9 11 19 1018.1 0 39.1 39.2 74.5 197.1 215.4 748.0
11/05 00:20 23.6 84 17.86 20.7 15 17 1018 0 38.6 38.7 73.5 194.3 212.0 736.2
11/05 00:10 23.6 84 17.86 20.7 13 15 1018.2 0 38.6 38.8 73.5 194.3 212.1 736.3
11/05 00:00 24 83 18.06 20.9 13 24 1018.4 0 39.0 39.0 74.1 195.8 214.0 743.2
10/05 23:50 24 83 18.06 20.9 15 17 1018.4 0 39.0 39.0 74.1 195.8 214.0 743.2
10/05 23:40 24 83 18.06 20.9 15 19 1018.6 0 39.0 39.0 74.1 195.9 214.0 743.3
10/05 23:30 23.9 84 18.17 21 15 22 1018.8 0 39.3 39.2 74.7 197.5 216.1 750.2
10/05 23:20 23.9 84 18.17 21 13 19 1018.7 0 39.3 39.2 74.7 197.5 216.0 750.2
10/05 23:10 23.9 84 18.17 21 15 26 1018.6 0 39.3 39.2 74.7 197.5 216.0 750.1
10/05 23:00 24 83 18.06 20.9 15 22 1018.8 0 39.0 39.0 74.1 195.9 214.1 743.4
10/05 22:50 24.1 83 18.16 21 13 20 1018.8 0 39.2 39.1 74.5 196.9 215.3 747.7
10/05 22:40 24.1 82 17.94 20.8 17 20 1018.8 0 38.8 38.7 73.4 194.2 212.0 736.0
10/05 22:30 24.1 83 18.16 21 17 26 1018.9 0 39.2 39.1 74.5 196.9 215.3 747.8
10/05 22:20 24 83 18.06 20.9 19 24 1018.9 0 39.0 39.0 74.1 195.9 214.1 743.4
10/05 22:10 24 83 18.06 20.9 17 20 1019.1 0 39.0 39.0 74.1 196.0 214.1 743.5
10/05 22:00 24.2 82 18.04 20.9 17 28 1019.1 0 39.0 38.9 73.8 195.2 213.2 740.5
10/05 21:50 24.1 83 18.16 21 15 17 1019.1 0 39.2 39.1 74.5 196.9 215.4 747.9
10/05 21:40 24 84 18.27 21.1 15 20 1019.1 0 39.5 39.4 75.1 198.6 217.4 754.8
10/05 21:30 24.1 83 18.16 21 17 26 1019.3 0 39.2 39.1 74.5 197.0 215.4 748.0
10/05 21:20 24 84 18.27 21.1 15 20 1019.2 0 39.5 39.4 75.1 198.6 217.4 754.8
10/05 21:10 23.8 85 18.28 21.1 9 13 1019.2 0 39.5 39.5 75.4 199.3 218.1 757.3
10/05 21:00 24.1 83 18.16 21 15 26 1019.1 0 39.2 39.1 74.5 196.9 215.4 747.9
10/05 20:50 24.2 82 18.04 20.9 17 22 1018.9 0 39.0 38.8 73.8 195.2 213.2 740.4
10/05 20:40 24.2 82 18.04 20.9 22 32 1019 0 39.0 38.9 73.8 195.2 213.2 740.4
10/05 20:30 24.1 83 18.16 21 13 20 1019 0 39.2 39.1 74.5 196.9 215.4 747.8
10/05 20:20 23.9 85 18.39 21.2 11 13 1018.9 0 39.7 39.7 75.8 200.3 219.5 762.1
10/05 20:10 23.8 85 18.28 21.1 13 19 1018.7 0 39.5 39.5 75.3 199.2 218.0 757.1
10/05 20:00 24 85 18.49 21.3 15 24 1018.8 0 39.9 39.8 76.1 201.3 220.7 766.4
10/05 19:50 24.1 84 18.38 21.2 15 20 1018.5 0 39.7 39.5 75.5 199.6 218.7 759.4
10/05 19:40 24.2 84 18.48 21.3 22 30 1018.1 0 39.9 39.6 75.8 200.5 219.9 763.5
10/05 19:30 23.9 86 18.6 21.4 15 24 1018.2 0 40.2 40.0 76.7 202.9 222.6 773.1
10/05 19:20 23.8 87 18.71 21.5 15 17 1017.9 0 40.4 40.3 77.3 204.5 224.6 779.9
10/05 19:10 23.8 87 18.71 21.5 15 20 1017.9 0 40.4 40.3 77.3 204.5 224.6 779.9
10/05 19:00 23.9 86 18.6 21.4 17 28 1017.8 0 40.2 40.0 76.7 202.8 222.6 772.9
10/05 18:50 24 86 18.71 21.5 13 17 1017.7 0 40.4 40.2 77.1 203.9 224.0 777.8
10/05 18:40 24 86 18.71 21.5 15 19 1017.5 0 40.4 40.2 77.1 203.9 223.9 777.7
10/05 18:30 24 87 18.93 21.7 20 33 1017.6 0 40.9 40.6 78.2 206.7 227.4 789.7
10/05 18:20 24.2 85 18.7 21.5 22 33 1017.5 0 40.4 40.0 76.9 203.2 223.2 775.1
10/05 18:10 24.5 82 18.35 21.2 24 32 1017.5 0 39.6 39.2 74.9 198.0 216.9 753.2
10/05 18:00 24.7 81 18.33 21.2 19 32 1017.6 0 39.5 39.1 74.6 197.3 216.0 750.2
10/05 17:50 24.5 82 18.35 21.2 20 24 1017.3 0 39.6 39.2 74.9 198.0 216.9 753.1
10/05 17:40 25.1 78 18.06 21 22 28 1017.3 0 38.9 38.4 72.9 192.9 210.7 731.9
10/05 17:30 25 80 18.42 21.3 19 32 1017.3 0 39.7 39.1 74.7 197.6 216.5 751.9
10/05 17:20 25 79 18.19 21.1 20 26 1017.1 0 39.2 38.7 73.6 194.7 213.0 739.6
10/05 17:10 24.8 80 18.21 21.1 15 19 1017 0 39.3 38.8 73.9 195.4 213.8 742.6
10/05 17:00 24.6 81 18.23 21.1 17 28 1017.1 0 39.3 38.9 74.2 196.2 214.7 745.6
10/05 16:50 24.6 81 18.23 21.1 17 24 1017.1 0 39.3 38.9 74.2 196.2 214.7 745.6
10/05 16:40 24.7 80 18.11 21 24 28 1017.2 0 39.1 38.7 73.6 194.5 212.6 738.4
10/05 16:30 24.7 80 18.11 21 24 41 1017.2 0 39.1 38.7 73.6 194.5 212.6 738.4
10/05 16:20 24.9 79 18.08 21 30 37 1017 0 39.0 38.5 73.2 193.6 211.6 734.7
10/05 16:10 25 80 18.42 21.3 24 32 1017.1 0 39.7 39.1 74.7 197.5 216.5 751.8
10/05 16:00 25.5 78 18.47 21.4 20 35 1016.9 0 39.8 39.0 74.4 196.8 215.7 749.4
10/05 15:50 25.8 78 18.78 21.7 19 24 1016.7 0 40.4 39.4 75.6 199.9 219.5 762.7
10/05 15:40 25.8 77 18.54 21.5 24 32 1016.6 0 39.9 38.9 74.4 196.9 215.9 749.9
10/05 15:30 25.8 76 18.3 21.2 15 32 1016.7 0 39.4 38.5 73.3 193.9 212.3 737.4
10/05 15:20 25.8 76 18.3 21.2 13 20 1016.5 0 39.4 38.5 73.3 193.9 212.3 737.3
10/05 15:10 25.6 77 18.33 21.3 13 15 1016.4 0 39.5 38.6 73.7 194.8 213.3 740.8
10/05 15:00 25.6 77 18.33 21.3 19 30 1016.5 0 39.5 38.6 73.7 194.8 213.3 740.8
10/05 14:50 25.4 77 18.13 21.1 19 22 1016.5 0 39.1 38.4 72.9 192.8 210.8 732.3
10/05 14:40 25.6 80 19.05 21.9 15 20 1016.4 0 41.0 40.0 77.0 203.7 224.2 778.9
10/05 14:30 26.2 75 18.46 21.4 19 32 1016.5 0 39.7 38.6 73.7 194.9 213.5 741.8
10/05 14:20 26.2 75 18.46 21.4 22 28 1016.2 0 39.7 38.6 73.7 194.8 213.5 741.6
10/05 14:10 26.5 73 18.27 21.3 17 20 1016.2 0 39.2 38.1 72.5 191.7 209.8 728.9
10/05 14:00 26.5 71 17.77 20.8 20 33 1016.4 0 38.2 37.2 70.3 185.8 202.5 703.3
10/05 13:50 26.7 72 18.23 21.2 19 22 1016.4 0 39.1 38.0 72.1 190.8 208.7 725.0

Last Refresh: 11-May-2026 05:57:42

Bureau of Meteorology